Time;durP1;ratioP1;P1;durP2;ratioP2;P2;SDS_P1;SDS_P2;PMS_P1;PMS_P2;Temp;Humidity;BMP_temperature;BMP_pressure;BME280_temperature;BME280_humidity;BME280_pressure;Samples;Min_cycle;Max_cycle;Signal;HPM_P1;HPM_P2
2023/08/30 00:00:05;;;;;;;8.40;5.80;;;13.30;99.90;;;;;;5114305;28;20184;-50
2023/08/30 00:02:30;;;;;;;6.00;5.40;;;13.30;99.90;;;;;;5114597;28;20360;-51
2023/08/30 00:04:59;;;;;;;5.57;5.07;;;13.20;99.90;;;;;;5114600;28;20909;-51
2023/08/30 00:07:26;;;;;;;5.87;5.37;;;13.20;99.90;;;;;;5114242;28;20175;-50
2023/08/30 00:09:51;;;;;;;6.03;4.90;;;13.20;99.90;;;;;;5114661;28;20419;-51
2023/08/30 00:12:17;;;;;;;10.97;5.03;;;13.10;99.90;;;;;;5114375;28;20425;-51
2023/08/30 00:14:42;;;;;;;6.10;4.60;;;13.10;99.90;;;;;;5114497;28;20182;-50
2023/08/30 00:17:08;;;;;;;5.73;4.47;;;13.10;99.90;;;;;;5114005;28;20643;-50
2023/08/30 00:19:34;;;;;;;5.90;5.10;;;13.10;99.90;;;;;;5114237;28;20178;-51
2023/08/30 00:21:59;;;;;;;5.13;4.30;;;13.00;99.90;;;;;;5095670;28;20554;-49
2023/08/30 00:24:25;;;;;;;6.70;5.07;;;13.00;99.90;;;;;;5114261;28;20262;-50
2023/08/30 00:26:50;;;;;;;6.73;5.33;;;13.00;99.90;;;;;;5113860;28;20510;-51
2023/08/30 00:29:16;;;;;;;5.60;4.90;;;12.90;99.90;;;;;;5113852;28;20181;-51
2023/08/30 00:31:42;;;;;;;7.00;5.37;;;12.90;99.90;;;;;;5114127;28;20180;-50
2023/08/30 00:34:07;;;;;;;7.80;5.57;;;12.90;99.90;;;;;;5113697;28;20256;-51
2023/08/30 00:36:33;;;;;;;11.73;5.77;;;12.90;99.90;;;;;;5113604;28;20571;-51
2023/08/30 00:38:58;;;;;;;6.80;5.23;;;12.80;99.90;;;;;;5113842;28;20222;-50
2023/08/30 00:41:24;;;;;;;7.00;5.70;;;12.80;99.90;;;;;;5113819;28;20640;-52
2023/08/30 00:43:49;;;;;;;9.77;5.47;;;12.70;99.90;;;;;;5113376;28;20250;-50
2023/08/30 00:46:16;;;;;;;6.10;4.93;;;12.70;99.90;;;;;;5114068;28;20190;-52
2023/08/30 00:48:42;;;;;;;5.37;4.67;;;12.60;99.90;;;;;;5113513;28;20258;-51
2023/08/30 00:51:07;;;;;;;7.20;4.63;;;12.60;99.90;;;;;;5113576;28;20432;-50
2023/08/30 00:53:33;;;;;;;5.37;4.80;;;12.50;99.90;;;;;;5113367;28;20909;-50
2023/08/30 00:55:59;;;;;;;5.60;4.70;;;12.50;99.90;;;;;;5113310;28;20180;-51
2023/08/30 00:58:29;;;;;;;8.90;5.83;;;12.50;99.90;;;;;;5113254;28;20406;-51
2023/08/30 01:00:54;;;;;;;5.47;4.87;;;12.50;99.90;;;;;;5113346;28;20429;-50
2023/08/30 01:03:21;;;;;;;6.17;4.73;;;12.50;99.90;;;;;;5112531;28;20525;-49
2023/08/30 01:05:47;;;;;;;8.63;5.70;;;12.50;99.90;;;;;;5113254;28;20192;-51
2023/08/30 01:08:13;;;;;;;6.40;5.40;;;12.40;99.90;;;;;;5113101;28;20429;-48
2023/08/30 01:11:16;;;;;;;8.70;5.47;;;12.40;99.90;;;;;;5093953;28;20578;-50
2023/08/30 01:13:53;;;;;;;6.53;5.80;;;12.30;99.90;;;;;;5112958;28;20409;-50
2023/08/30 01:16:21;;;;;;;7.70;6.07;;;12.40;99.90;;;;;;5112983;28;20804;-50
2023/08/30 01:18:47;;;;;;;8.03;5.90;;;12.40;99.90;;;;;;5112717;28;20901;-51
2023/08/30 01:21:26;;;;;;;7.27;5.67;;;12.40;99.90;;;;;;5113231;28;20425;-51
2023/08/30 01:23:59;;;;;;;5.67;5.17;;;12.40;99.90;;;;;;5112596;28;20966;-49
2023/08/30 01:26:29;;;;;;;8.23;5.50;;;12.40;99.90;;;;;;5094694;28;20418;-49
2023/08/30 01:28:56;;;;;;;8.73;5.20;;;12.30;99.90;;;;;;5094606;28;20521;-50
2023/08/30 01:31:23;;;;;;;8.50;5.00;;;12.30;99.90;;;;;;5112670;28;20425;-51
2023/08/30 01:33:50;;;;;;;7.03;5.50;;;12.30;99.90;;;;;;5112953;28;20473;-49
2023/08/30 01:36:16;;;;;;;6.83;5.80;;;12.30;99.90;;;;;;5112859;28;20466;-49
2023/08/30 01:38:43;;;;;;;6.30;5.17;;;12.30;99.90;;;;;;5112479;28;20417;-50
2023/08/30 01:41:09;;;;;;;8.17;5.90;;;12.30;99.90;;;;;;5112435;28;20978;-50
2023/08/30 01:43:35;;;;;;;6.80;5.60;;;12.30;99.90;;;;;;5112408;28;20477;-50
2023/08/30 01:46:02;;;;;;;7.60;6.80;;;12.30;99.90;;;;;;5112703;28;20424;-50
2023/08/30 01:48:29;;;;;;;7.50;6.40;;;12.30;99.90;;;;;;5112623;28;20512;-50
2023/08/30 01:50:58;;;;;;;8.20;6.43;;;12.30;99.90;;;;;;5112272;28;20772;-51
2023/08/30 01:53:25;;;;;;;13.43;8.83;;;12.30;99.90;;;;;;5112611;28;20418;-52
2023/08/30 01:55:50;;;;;;;13.20;9.40;;;12.30;99.90;;;;;;5112463;28;20421;-51
2023/08/30 01:58:16;;;;;;;11.97;10.07;;;12.40;99.90;;;;;;5112510;28;20409;-49
2023/08/30 02:00:42;;;;;;;11.90;10.70;;;12.50;99.90;;;;;;5112436;28;20564;-51
2023/08/30 02:03:11;;;;;;;12.30;10.43;;;12.50;99.90;;;;;;5112485;28;20220;-49
2023/08/30 02:05:47;;;;;;;14.13;10.90;;;12.60;99.90;;;;;;5112618;28;21153;-50
2023/08/30 02:08:16;;;;;;;12.27;10.13;;;12.60;99.90;;;;;;5112411;28;20881;-49
2023/08/30 02:10:52;;;;;;;16.00;12.70;;;12.60;99.90;;;;;;5112766;28;20483;-49
2023/08/30 02:13:24;;;;;;;12.63;9.77;;;12.60;99.90;;;;;;5112227;28;20933;-52
2023/08/30 02:15:51;;;;;;;14.87;11.10;;;12.60;99.90;;;;;;5112380;28;20436;-50
2023/08/30 02:18:18;;;;;;;13.40;10.47;;;12.60;99.90;;;;;;5112313;28;20932;-55
2023/08/30 02:20:43;;;;;;;12.23;10.23;;;12.60;99.90;;;;;;5114143;28;20505;-49
2023/08/30 02:23:09;;;;;;;14.50;11.63;;;12.70;99.90;;;;;;5116237;28;20569;-50
2023/08/30 02:25:35;;;;;;;14.47;11.77;;;12.70;99.90;;;;;;5116244;28;20674;-49
2023/08/30 02:28:01;;;;;;;16.13;12.40;;;12.70;99.90;;;;;;5116210;28;20457;-50
2023/08/30 02:30:26;;;;;;;14.87;11.77;;;12.70;99.90;;;;;;5116189;28;20176;-50
2023/08/30 02:32:52;;;;;;;14.10;11.70;;;12.70;99.90;;;;;;5115754;28;20184;-49
2023/08/30 02:35:17;;;;;;;17.27;12.00;;;12.70;99.90;;;;;;5115974;28;20635;-49
2023/08/30 02:37:43;;;;;;;11.83;9.90;;;12.70;99.90;;;;;;5116268;28;20583;-49
2023/08/30 02:40:09;;;;;;;11.10;9.90;;;12.70;99.90;;;;;;5116006;28;20190;-50
2023/08/30 02:42:34;;;;;;;10.27;9.17;;;12.70;99.90;;;;;;5116343;28;20246;-49
2023/08/30 02:45:00;;;;;;;15.63;11.07;;;12.70;99.90;;;;;;5116024;28;20460;-53
2023/08/30 02:47:26;;;;;;;12.07;9.80;;;12.70;99.90;;;;;;5115554;28;20206;-50
2023/08/30 02:49:51;;;;;;;10.10;9.03;;;12.70;99.90;;;;;;5115486;28;20257;-50
2023/08/30 02:52:17;;;;;;;14.33;11.47;;;12.70;99.90;;;;;;5115957;28;20185;-50
2023/08/30 02:54:43;;;;;;;16.63;12.40;;;12.70;99.90;;;;;;5115586;28;20180;-50
2023/08/30 02:57:08;;;;;;;13.07;10.47;;;12.80;99.90;;;;;;5115325;28;20424;-49
2023/08/30 02:59:34;;;;;;;17.73;12.73;;;12.80;99.90;;;;;;5115345;28;20180;-50
2023/08/30 03:01:59;;;;;;;16.10;12.30;;;12.80;99.90;;;;;;5115162;28;20234;-50
2023/08/30 03:04:25;;;;;;;17.33;12.43;;;12.80;99.90;;;;;;5115579;28;20658;-49
2023/08/30 03:06:51;;;;;;;17.20;13.20;;;12.80;99.90;;;;;;5115133;28;20184;-50
2023/08/30 03:09:16;;;;;;;16.20;12.80;;;12.90;99.90;;;;;;5115732;28;20183;-51
2023/08/30 03:11:42;;;;;;;14.83;12.40;;;12.90;99.90;;;;;;5115395;28;20197;-50
2023/08/30 03:14:07;;;;;;;17.40;12.90;;;12.90;99.90;;;;;;5115015;28;20640;-49
2023/08/30 03:16:33;;;;;;;14.70;12.77;;;12.90;99.90;;;;;;5114985;28;20184;-50
2023/08/30 03:18:58;;;;;;;14.03;10.20;;;12.90;99.90;;;;;;5114765;28;20180;-50
2023/08/30 03:21:24;;;;;;;13.83;11.10;;;12.90;99.90;;;;;;5114437;28;20179;-50
2023/08/30 03:23:50;;;;;;;17.63;11.20;;;12.90;99.90;;;;;;5115111;28;20203;-50
2023/08/30 03:26:16;;;;;;;12.70;10.10;;;12.90;99.90;;;;;;5115213;28;20515;-50
2023/08/30 03:28:43;;;;;;;13.00;10.90;;;12.90;99.90;;;;;;5114923;28;20191;-49
2023/08/30 03:31:16;;;;;;;14.90;12.20;;;12.90;99.90;;;;;;5114685;28;20414;-50
2023/08/30 03:33:42;;;;;;;15.77;11.33;;;12.90;99.90;;;;;;5114232;28;20394;-50
2023/08/30 03:36:12;;;;;;;14.50;11.20;;;13.00;99.90;;;;;;5114931;28;20504;-51
2023/08/30 03:38:38;;;;;;;16.40;12.10;;;13.00;99.90;;;;;;5115901;28;20191;-50
2023/08/30 03:41:04;;;;;;;19.40;13.67;;;13.00;99.90;;;;;;5114623;28;20467;-50
2023/08/30 03:43:31;;;;;;;13.83;11.60;;;13.00;99.90;;;;;;5114733;28;20548;-50
2023/08/30 03:45:57;;;;;;;17.57;13.67;;;13.10;99.90;;;;;;5114525;28;20180;-50
2023/08/30 03:48:23;;;;;;;15.50;12.83;;;13.10;99.90;;;;;;5114320;28;20538;-50
2023/08/30 03:50:49;;;;;;;16.00;13.47;;;13.10;99.90;;;;;;5114532;28;20431;-54
2023/08/30 03:53:14;;;;;;;16.60;12.53;;;13.20;99.90;;;;;;5114882;28;20262;-49
2023/08/30 03:55:41;;;;;;;15.43;12.40;;;13.20;99.90;;;;;;5114137;28;20677;-51
2023/08/30 03:58:06;;;;;;;20.20;13.03;;;13.20;99.90;;;;;;5114484;28;20542;-49
2023/08/30 04:00:32;;;;;;;18.07;13.97;;;13.20;99.90;;;;;;5113976;28;20513;-50
2023/08/30 04:02:57;;;;;;;18.63;12.47;;;13.20;99.90;;;;;;5114109;28;20307;-49
2023/08/30 04:05:23;;;;;;;17.17;14.17;;;13.30;99.90;;;;;;5113946;28;20180;-50
2023/08/30 04:07:49;;;;;;;19.57;13.53;;;13.30;99.90;;;;;;5114560;28;20176;-50
2023/08/30 04:10:14;;;;;;;19.23;14.53;;;13.30;99.90;;;;;;5114396;28;20261;-49
2023/08/30 04:12:40;;;;;;;19.87;14.40;;;13.40;99.90;;;;;;5114275;28;20184;-50
2023/08/30 04:15:06;;;;;;;16.37;13.13;;;13.40;99.90;;;;;;5095315;28;20188;-50
2023/08/30 04:17:32;;;;;;;20.77;14.50;;;13.40;99.90;;;;;;5113845;28;20258;-50
2023/08/30 04:19:57;;;;;;;17.60;13.80;;;13.40;99.90;;;;;;5113592;28;20543;-50
2023/08/30 04:22:23;;;;;;;16.43;13.30;;;13.40;99.90;;;;;;5113397;28;20247;-51
2023/08/30 04:24:48;;;;;;;18.80;14.80;;;13.50;99.90;;;;;;5113890;28;20945;-50
2023/08/30 04:27:14;;;;;;;22.20;14.80;;;13.50;99.90;;;;;;5113687;28;20183;-50
2023/08/30 04:29:40;;;;;;;18.10;13.00;;;13.50;99.90;;;;;;5113701;28;20185;-50
2023/08/30 04:32:05;;;;;;;19.57;14.60;;;13.60;99.90;;;;;;5113422;28;20179;-51
2023/08/30 04:34:32;;;;;;;24.83;14.10;;;13.60;99.90;;;;;;5113407;28;20221;-50
2023/08/30 04:36:58;;;;;;;17.93;14.13;;;13.60;99.90;;;;;;5113439;28;20180;-50
2023/08/30 04:39:23;;;;;;;15.93;13.03;;;13.60;99.90;;;;;;5113534;28;20413;-51
2023/08/30 04:41:49;;;;;;;17.67;13.77;;;13.70;99.90;;;;;;5113216;28;20183;-50
2023/08/30 04:44:16;;;;;;;18.10;13.57;;;13.70;99.90;;;;;;5113477;28;20202;-51
2023/08/30 04:46:41;;;;;;;18.80;12.93;;;13.70;99.90;;;;;;5113480;28;20201;-50
2023/08/30 04:49:07;;;;;;;15.17;11.50;;;13.70;99.90;;;;;;5113270;28;20412;-50
2023/08/30 04:51:33;;;;;;;15.17;12.60;;;13.80;99.90;;;;;;5113329;28;20180;-51
2023/08/30 04:53:58;;;;;;;18.90;13.67;;;13.80;99.90;;;;;;5112928;28;20187;-50
2023/08/30 04:56:24;;;;;;;17.20;12.63;;;13.90;99.90;;;;;;5113160;28;20184;-49
2023/08/30 04:58:50;;;;;;;16.80;12.10;;;13.90;99.90;;;;;;5112986;28;20188;-51
2023/08/30 05:01:16;;;;;;;15.33;12.47;;;14.00;99.90;;;;;;5113173;28;20191;-50
2023/08/30 05:03:42;;;;;;;22.10;12.80;;;14.00;99.90;;;;;;5112901;28;20468;-51
2023/08/30 05:06:07;;;;;;;15.37;11.73;;;14.10;99.90;;;;;;5112863;28;20633;-51
2023/08/30 05:08:33;;;;;;;18.13;11.67;;;14.10;99.90;;;;;;5113036;28;20504;-50
2023/08/30 05:10:59;;;;;;;19.63;13.33;;;14.20;99.90;;;;;;5112700;28;20187;-52
2023/08/30 05:13:25;;;;;;;16.47;11.03;;;14.20;99.90;;;;;;5112944;28;20639;-51
2023/08/30 05:15:51;;;;;;;14.43;12.10;;;14.30;99.90;;;;;;5112855;28;20180;-50
2023/08/30 05:18:18;;;;;;;14.70;12.37;;;14.30;99.90;;;;;;5113169;28;20467;-51
2023/08/30 05:20:44;;;;;;;15.13;13.53;;;14.30;99.90;;;;;;5112793;28;20418;-51
2023/08/30 05:23:09;;;;;;;17.53;13.30;;;14.40;99.90;;;;;;5112690;28;20476;-51
2023/08/30 05:25:35;;;;;;;11.57;9.40;;;14.50;99.90;;;;;;5112637;28;20191;-50
2023/08/30 05:28:00;;;;;;;13.40;10.53;;;14.50;99.90;;;;;;5112664;28;20611;-51
2023/08/30 05:30:26;;;;;;;17.03;12.00;;;14.60;99.90;;;;;;5112301;28;20190;-50
2023/08/30 05:32:52;;;;;;;18.20;12.73;;;14.60;99.90;;;;;;5112481;28;20182;-52
2023/08/30 05:35:18;;;;;;;15.40;12.40;;;14.70;99.90;;;;;;5112732;28;20582;-50
2023/08/30 05:37:43;;;;;;;14.07;10.50;;;14.80;99.90;;;;;;5112483;28;20312;-51
2023/08/30 05:40:09;;;;;;;13.67;11.40;;;14.90;99.90;;;;;;5112485;28;20915;-51
2023/08/30 05:42:35;;;;;;;12.23;10.67;;;15.00;99.90;;;;;;5112101;28;20735;-51
2023/08/30 05:45:00;;;;;;;17.50;12.13;;;15.00;99.90;;;;;;5112697;28;20502;-50
2023/08/30 05:47:26;;;;;;;13.67;11.43;;;15.00;99.90;;;;;;5112320;28;20627;-52
2023/08/30 05:49:51;;;;;;;17.30;12.93;;;15.10;99.90;;;;;;5112087;28;20188;-53
2023/08/30 05:52:18;;;;;;;15.60;12.97;;;15.20;99.90;;;;;;5112459;28;20270;-52
2023/08/30 05:54:44;;;;;;;13.23;11.77;;;15.20;99.90;;;;;;5112106;28;20216;-51
2023/08/30 05:57:10;;;;;;;15.70;11.17;;;15.30;99.90;;;;;;5116538;28;20503;-51
2023/08/30 05:59:36;;;;;;;12.60;10.70;;;15.40;99.90;;;;;;5116599;28;20497;-52
2023/08/30 06:02:01;;;;;;;15.87;11.10;;;15.50;9.00;;;;;;5116055;28;20455;-52
2023/08/30 06:04:27;;;;;;;16.00;10.50;;;15.60;1.00;;;;;;5116824;28;20179;-51
2023/08/30 06:06:53;;;;;;;15.30;10.73;;;15.70;1.00;;;;;;5116420;28;20899;-54
2023/08/30 06:09:18;;;;;;;11.87;10.53;;;15.80;1.00;;;;;;5116537;28;20176;-51
2023/08/30 06:11:44;;;;;;;14.57;9.50;;;15.90;99.90;;;;;;5116103;28;20644;-51
2023/08/30 06:14:09;;;;;;;15.90;9.20;;;15.90;99.90;;;;;;5116099;28;20186;-54
2023/08/30 06:16:35;;;;;;;13.87;8.67;;;16.00;99.90;;;;;;5116041;28;20228;-51
2023/08/30 06:19:01;;;;;;;12.80;8.97;;;16.10;99.90;;;;;;5116322;28;20187;-52
2023/08/30 06:21:26;;;;;;;11.63;8.07;;;16.10;99.90;;;;;;5115800;28;20704;-51
2023/08/30 06:23:52;;;;;;;11.03;7.90;;;16.20;99.90;;;;;;5116170;28;20219;-55
2023/08/30 06:26:18;;;;;;;10.67;8.70;;;16.30;75.40;;;;;;5116316;28;20181;-52
2023/08/30 06:28:44;;;;;;;12.70;8.60;;;16.40;1.00;;;;;;5115884;28;20187;-51
2023/08/30 06:31:10;;;;;;;11.50;8.70;;;16.40;99.90;;;;;;5116209;28;20402;-53
2023/08/30 06:33:36;;;;;;;13.23;8.67;;;16.50;99.90;;;;;;5115779;28;20176;-52
2023/08/30 06:36:02;;;;;;;13.90;8.93;;;16.50;99.90;;;;;;5097777;28;20187;-53
2023/08/30 06:38:27;;;;;;;10.07;8.40;;;16.60;99.90;;;;;;5115948;28;20763;-51
2023/08/30 06:40:53;;;;;;;12.83;9.17;;;16.80;99.90;;;;;;5116122;28;20533;-51
2023/08/30 06:43:19;;;;;;;15.57;9.63;;;16.90;99.90;;;;;;5115779;28;20302;-52
2023/08/30 06:45:46;;;;;;;9.83;8.60;;;16.90;64.00;;;;;;5115772;28;20261;-52
2023/08/30 06:48:11;;;;;;;8.70;7.80;;;17.00;33.00;;;;;;5115728;28;20207;-52
2023/08/30 06:50:37;;;;;;;9.93;8.10;;;17.20;6.10;;;;;;5115324;28;20414;-51
2023/08/30 06:53:03;;;;;;;14.93;9.63;;;17.20;1.00;;;;;;5115273;28;20189;-55
2023/08/30 06:55:29;;;;;;;9.30;8.40;;;17.30;1.00;;;;;;5115223;28;20184;-52
2023/08/30 06:57:55;;;;;;;11.33;8.90;;;17.30;1.00;;;;;;5115168;28;20406;-52
2023/08/30 07:00:21;;;;;;;12.60;9.63;;;17.30;1.00;;;;;;5115369;28;20182;-51
2023/08/30 07:02:47;;;;;;;12.37;9.17;;;17.40;1.00;;;;;;5115293;28;20465;-52
2023/08/30 07:05:13;;;;;;;10.50;9.40;;;17.40;1.00;;;;;;5115615;28;20482;-52
2023/08/30 07:07:39;;;;;;;12.77;10.50;;;17.50;1.00;;;;;;5114079;28;20210;-52
2023/08/30 07:10:05;;;;;;;11.00;9.90;;;17.60;1.00;;;;;;5114997;28;20187;-53
2023/08/30 07:12:31;;;;;;;23.40;11.50;;;17.70;1.00;;;;;;5115001;28;20427;-53
2023/08/30 07:14:56;;;;;;;20.77;11.10;;;17.70;1.00;;;;;;5115479;28;20465;-53
2023/08/30 07:17:22;;;;;;;15.60;10.13;;;17.60;1.00;;;;;;5115468;28;20211;-53
2023/08/30 07:19:48;;;;;;;14.93;10.60;;;17.60;1.00;;;;;;5114788;28;20212;-52
2023/08/30 07:22:16;;;;;;;14.40;10.60;;;17.50;1.00;;;;;;5114560;28;20225;-53
2023/08/30 07:24:42;;;;;;;13.13;11.20;;;17.50;1.00;;;;;;5115991;28;20418;-52
2023/08/30 07:27:08;;;;;;;14.57;10.93;;;17.80;1.00;;;;;;5115804;28;20498;-53
2023/08/30 07:29:34;;;;;;;11.93;10.73;;;18.00;1.00;;;;;;5115885;28;20521;-54
2023/08/30 07:31:59;;;;;;;11.10;10.00;;;18.20;1.00;;;;;;5116427;28;20178;-53
2023/08/30 07:34:25;;;;;;;12.50;10.93;;;18.10;1.00;;;;;;5115941;28;20182;-53
2023/08/30 07:36:53;;;;;;;13.00;11.57;;;18.30;1.00;;;;;;5116277;28;20232;-54
2023/08/30 07:39:19;;;;;;;15.83;10.10;;;18.60;1.00;;;;;;5116118;28;20652;-53
2023/08/30 07:41:45;;;;;;;15.37;12.60;;;18.90;1.00;;;;;;5115680;28;20408;-54
2023/08/30 07:44:10;;;;;;;16.10;11.73;;;19.30;1.00;;;;;;5115586;28;20301;-52
2023/08/30 07:46:36;;;;;;;12.80;11.50;;;19.50;1.00;;;;;;5115515;28;20186;-52
2023/08/30 07:49:02;;;;;;;17.17;14.30;;;19.60;1.00;;;;;;5115503;28;20237;-53
2023/08/30 07:51:28;;;;;;;21.80;14.60;;;19.60;1.00;;;;;;5097095;28;20189;-52
2023/08/30 07:53:53;;;;;;;21.27;14.37;;;19.50;1.00;;;;;;5115491;28;20503;-52
2023/08/30 07:56:19;;;;;;;18.87;14.47;;;19.50;1.00;;;;;;5115887;28;20306;-53
2023/08/30 07:58:44;;;;;;;15.23;13.57;;;19.70;1.00;;;;;;5115676;28;20525;-52
2023/08/30 08:01:10;;;;;;;17.50;14.17;;;19.70;1.00;;;;;;5115525;28;20711;-54
2023/08/30 08:03:35;;;;;;;17.33;14.03;;;20.00;1.00;;;;;;5115290;28;20235;-53
2023/08/30 08:06:01;;;;;;;15.37;13.67;;;20.10;1.00;;;;;;5115357;28;20227;-54
2023/08/30 08:08:27;;;;;;;15.80;12.80;;;20.40;1.00;;;;;;5115112;28;20179;-54
2023/08/30 08:10:52;;;;;;;19.07;13.20;;;20.60;1.00;;;;;;5115059;28;20187;-54
2023/08/30 08:13:18;;;;;;;13.73;12.17;;;20.70;1.00;;;;;;5115407;28;20186;-54
2023/08/30 08:15:44;;;;;;;14.57;12.07;;;20.80;1.00;;;;;;5115140;28;20179;-54
2023/08/30 08:18:09;;;;;;;12.43;10.77;;;21.10;1.00;;;;;;5096260;28;20192;-54
2023/08/30 08:20:36;;;;;;;16.43;11.70;;;21.30;1.00;;;;;;5114839;28;20184;-53
2023/08/30 08:23:03;;;;;;;12.63;10.80;;;21.30;1.00;;;;;;5114548;28;20320;-52
2023/08/30 08:25:28;;;;;;;12.77;11.10;;;21.40;1.00;;;;;;5114654;28;20909;-54
2023/08/30 08:27:54;;;;;;;11.87;10.37;;;21.40;1.00;;;;;;5115157;28;20467;-53
2023/08/30 08:30:20;;;;;;;12.70;10.03;;;21.60;1.00;;;;;;5114976;28;20179;-54
2023/08/30 08:32:49;;;;;;;13.10;9.50;;;21.80;1.00;;;;;;5114793;28;20237;-53
2023/08/30 08:35:15;;;;;;;11.33;9.27;;;22.00;1.00;;;;;;5115041;28;20422;-54
2023/08/30 08:37:41;;;;;;;13.30;8.20;;;22.00;1.00;;;;;;5114541;28;20535;-52
2023/08/30 08:40:10;;;;;;;10.40;8.00;;;22.00;1.00;;;;;;5114659;28;20272;-53
2023/08/30 08:42:36;;;;;;;12.63;8.30;;;22.10;1.00;;;;;;5114153;28;20653;-54
2023/08/30 08:45:04;;;;;;;13.83;8.10;;;21.90;1.00;;;;;;5114787;28;20419;-54
2023/08/30 08:47:32;;;;;;;10.47;8.37;;;21.50;1.00;;;;;;5114254;28;20969;-54
2023/08/30 08:50:00;;;;;;;10.43;9.20;;;21.40;1.00;;;;;;5114470;28;20414;-54
2023/08/30 08:52:26;;;;;;;13.10;8.10;;;21.30;1.00;;;;;;5114330;28;20418;-53
2023/08/30 08:54:54;;;;;;;14.13;8.50;;;21.30;1.00;;;;;;5114185;28;20458;-54
2023/08/30 08:57:21;;;;;;;11.43;8.10;;;21.10;1.00;;;;;;5113197;28;20427;-53
2023/08/30 08:59:46;;;;;;;8.23;6.80;;;21.00;1.00;;;;;;5112620;28;20410;-54
2023/08/30 09:02:14;;;;;;;12.33;8.50;;;20.90;1.00;;;;;;5112791;28;20454;-53
2023/08/30 09:04:40;;;;;;;10.77;7.77;;;20.70;1.00;;;;;;5112976;28;20552;-54
2023/08/30 09:07:05;;;;;;;12.23;8.67;;;20.70;1.00;;;;;;5112741;28;20422;-54
2023/08/30 09:09:31;;;;;;;11.37;8.67;;;20.70;1.00;;;;;;5112822;28;20407;-53
2023/08/30 09:11:57;;;;;;;11.87;8.20;;;20.70;1.00;;;;;;5112284;28;20607;-54
2023/08/30 09:14:22;;;;;;;11.30;7.20;;;20.80;1.00;;;;;;5113121;28;20181;-52
2023/08/30 09:16:55;;;;;;;20.53;9.00;;;21.10;1.00;;;;;;5113044;28;20688;-53
2023/08/30 09:19:21;;;;;;;15.00;8.70;;;21.60;1.00;;;;;;5112796;28;20176;-52
2023/08/30 09:21:58;;;;;;;12.00;9.30;;;21.90;1.00;;;;;;5112555;28;21005;-53
2023/08/30 09:24:24;;;;;;;9.63;7.93;;;21.80;1.00;;;;;;5112665;28;20916;-51
2023/08/30 09:26:52;;;;;;;9.50;6.37;;;21.70;1.00;;;;;;5112449;28;20449;-52
2023/08/30 09:29:19;;;;;;;8.13;6.80;;;21.60;1.00;;;;;;5112114;28;20426;-53
2023/08/30 09:31:45;;;;;;;9.90;6.87;;;21.50;1.00;;;;;;5111950;28;20426;-52
2023/08/30 09:34:11;;;;;;;8.07;6.10;;;21.30;1.00;;;;;;5112426;28;20421;-53
2023/08/30 09:36:41;;;;;;;7.70;6.90;;;21.00;1.00;;;;;;5112544;28;20418;-53
2023/08/30 09:39:14;;;;;;;13.63;7.17;;;20.80;1.00;;;;;;5112647;28;20551;-54
2023/08/30 09:41:45;;;;;;;7.83;5.93;;;20.60;1.00;;;;;;5113833;28;20486;-53
2023/08/30 09:44:12;;;;;;;9.00;6.73;;;20.60;1.00;;;;;;5113536;28;20457;-54
2023/08/30 09:46:44;;;;;;;7.80;6.03;;;20.50;1.00;;;;;;5113713;28;20936;-53
2023/08/30 09:49:11;;;;;;;11.17;7.73;;;20.40;1.00;;;;;;5114399;28;20968;-53
2023/08/30 09:51:41;;;;;;;9.20;7.00;;;20.50;1.00;;;;;;5113920;28;20559;-53
2023/08/30 09:54:16;;;;;;;8.93;6.83;;;20.40;1.00;;;;;;5113601;28;20949;-53
2023/08/30 09:56:43;;;;;;;7.80;7.00;;;20.40;1.00;;;;;;5113988;28;20428;-53
2023/08/30 09:59:11;;;;;;;15.43;7.40;;;20.40;1.00;;;;;;5113583;28;20440;-55
2023/08/30 10:01:37;;;;;;;7.10;6.03;;;20.30;1.00;;;;;;5113632;28;20420;-55
2023/08/30 10:04:05;;;;;;;9.87;5.80;;;20.30;1.00;;;;;;5113589;28;20527;-52
2023/08/30 10:06:32;;;;;;;9.83;6.30;;;20.30;1.00;;;;;;5113515;28;20429;-54
2023/08/30 10:08:59;;;;;;;8.20;6.07;;;20.30;1.00;;;;;;5113230;28;20410;-54
2023/08/30 10:11:26;;;;;;;7.93;6.03;;;20.50;1.00;;;;;;5113289;28;20417;-53
2023/08/30 10:13:52;;;;;;;7.20;5.63;;;20.40;1.00;;;;;;5113588;28;20762;-55
2023/08/30 10:16:24;;;;;;;7.90;5.90;;;20.40;1.00;;;;;;5113393;28;20409;-53
2023/08/30 10:19:02;;;;;;;8.30;5.60;;;20.40;1.00;;;;;;5113816;28;20410;-54
2023/08/30 10:21:30;;;;;;;9.00;5.73;;;20.40;1.00;;;;;;5113412;28;20405;-54
2023/08/30 10:23:58;;;;;;;11.00;6.67;;;20.50;1.00;;;;;;5113554;28;20453;-53
2023/08/30 10:26:26;;;;;;;9.63;6.60;;;20.60;1.00;;;;;;5113763;28;20429;-54
2023/08/30 10:28:56;;;;;;;8.33;5.73;;;20.70;1.00;;;;;;5114295;28;20414;-55
2023/08/30 10:31:22;;;;;;;7.70;6.17;;;20.90;1.00;;;;;;5113755;28;20414;-53
2023/08/30 10:33:53;;;;;;;5.77;5.10;;;21.20;1.00;;;;;;5113210;28;20772;-54
2023/08/30 10:36:23;;;;;;;7.43;5.67;;;21.60;1.00;;;;;;5113568;28;20192;-53
2023/08/30 10:38:53;;;;;;;6.90;5.37;;;22.30;1.00;;;;;;5114056;28;20501;-55
2023/08/30 10:41:26;;;;;;;7.10;5.47;;;22.80;1.00;;;;;;5114886;28;20436;-55
2023/08/30 10:43:55;;;;;;;5.90;5.10;;;23.40;1.00;;;;;;5117013;28;20469;-51
2023/08/30 10:46:32;;;;;;;8.60;6.07;;;23.70;1.00;;;;;;5117214;28;20914;-53
2023/08/30 10:49:09;;;;;;;8.00;6.07;;;24.00;1.00;;;;;;5117539;28;20418;-54
2023/08/30 10:51:39;;;;;;;10.67;6.80;;;23.90;1.00;;;;;;5117084;28;20413;-53
2023/08/30 10:54:12;;;;;;;8.03;5.60;;;23.80;1.00;;;;;;5117105;28;20943;-53
2023/08/30 10:57:01;;;;;;;7.07;6.17;;;24.00;1.00;;;;;;5116923;28;20415;-53
2023/08/30 10:59:29;;;;;;;7.80;5.67;;;23.60;1.00;;;;;;5116819;28;20399;-53
2023/08/30 11:01:55;;;;;;;11.53;6.10;;;23.70;1.00;;;;;;5116636;28;20424;-54
2023/08/30 11:04:22;;;;;;;6.53;5.17;;;24.00;1.00;;;;;;5116480;28;20418;-53
2023/08/30 11:06:50;;;;;;;8.13;5.40;;;24.20;1.00;;;;;;5116420;28;20414;-54
2023/08/30 11:09:17;;;;;;;8.37;6.00;;;23.60;1.00;;;;;;5116390;28;20430;-53
2023/08/30 11:11:45;;;;;;;7.93;5.73;;;23.20;1.00;;;;;;5116613;28;20445;-53
2023/08/30 11:14:10;;;;;;;7.63;5.33;;;23.30;1.00;;;;;;5116559;28;20415;-53
2023/08/30 11:16:37;;;;;;;8.07;5.63;;;23.40;1.00;;;;;;5116617;28;20468;-54
2023/08/30 11:19:04;;;;;;;6.80;5.13;;;23.30;1.00;;;;;;5116373;28;20184;-55
2023/08/30 11:21:32;;;;;;;6.80;6.10;;;23.10;1.00;;;;;;5116119;28;20426;-54
2023/08/30 11:23:57;;;;;;;11.83;5.60;;;23.10;1.00;;;;;;5116459;28;20844;-54
2023/08/30 11:26:23;;;;;;;10.30;5.47;;;23.70;1.00;;;;;;5116528;28;20417;-55
2023/08/30 11:28:51;;;;;;;7.70;5.30;;;24.10;1.00;;;;;;5116495;28;20229;-55
2023/08/30 11:31:28;;;;;;;8.30;5.63;;;24.20;1.00;;;;;;5116523;28;20191;-55
2023/08/30 11:33:58;;;;;;;7.30;5.53;;;23.80;1.00;;;;;;5098778;28;20403;-55
2023/08/30 11:36:27;;;;;;;7.83;6.50;;;23.30;1.00;;;;;;5116502;28;20819;-55
2023/08/30 11:38:53;;;;;;;7.93;6.10;;;23.00;1.00;;;;;;5116143;28;20934;-54
2023/08/30 11:41:23;;;;;;;9.77;6.30;;;22.90;1.00;;;;;;5116134;28;20414;-56
2023/08/30 11:43:49;;;;;;;8.00;5.80;;;23.10;1.00;;;;;;5115509;28;20603;-55
2023/08/30 11:46:17;;;;;;;5.67;5.10;;;23.30;1.00;;;;;;5115656;28;20509;-55
2023/08/30 11:48:43;;;;;;;7.20;5.43;;;23.40;1.00;;;;;;5116341;28;20199;-55
2023/08/30 11:51:10;;;;;;;11.53;7.00;;;23.60;1.00;;;;;;5116272;28;20426;-53
2023/08/30 11:53:38;;;;;;;8.67;6.23;;;23.40;1.00;;;;;;5115329;28;20415;-54
2023/08/30 11:56:05;;;;;;;9.47;6.83;;;23.20;1.00;;;;;;5115754;28;20464;-54
2023/08/30 11:58:36;;;;;;;9.73;6.50;;;23.10;1.00;;;;;;5115640;28;20806;-53
2023/08/30 12:01:04;;;;;;;8.40;5.50;;;23.40;1.00;;;;;;5098557;28;20494;-55
2023/08/30 12:03:31;;;;;;;9.30;5.30;;;24.00;1.00;;;;;;5115906;28;20462;-54
2023/08/30 12:05:57;;;;;;;8.63;5.80;;;24.50;1.00;;;;;;5114107;28;20430;-55
2023/08/30 12:08:28;;;;;;;8.47;6.00;;;24.90;1.00;;;;;;5114115;28;20414;-53
2023/08/30 12:10:55;;;;;;;7.90;5.80;;;24.90;1.00;;;;;;5114193;28;20427;-54
2023/08/30 12:13:25;;;;;;;8.87;5.80;;;24.20;1.00;;;;;;5114058;28;20414;-54
2023/08/30 12:15:58;;;;;;;14.97;7.53;;;23.60;1.00;;;;;;5116545;28;20505;-54
2023/08/30 12:18:27;;;;;;;9.67;6.23;;;23.00;1.00;;;;;;5114172;28;20459;-54
2023/08/30 12:20:55;;;;;;;11.07;6.10;;;22.80;1.00;;;;;;5113743;28;20419;-55
2023/08/30 12:23:24;;;;;;;6.83;6.00;;;22.50;1.00;;;;;;5112896;28;20967;-55
2023/08/30 12:26:19;;;;;;;9.30;6.50;;;22.00;1.00;;;;;;5113011;28;20419;-53
2023/08/30 12:28:45;;;;;;;6.60;5.70;;;21.60;1.00;;;;;;5097113;28;20435;-55
2023/08/30 12:31:10;;;;;;;8.00;6.27;;;21.50;1.00;;;;;;5113362;28;20407;-54
2023/08/30 12:33:37;;;;;;;13.30;6.40;;;21.50;1.00;;;;;;5113310;28;20258;-54
2023/08/30 12:36:03;;;;;;;9.10;5.50;;;21.60;1.00;;;;;;5114448;28;20229;-54
2023/08/30 12:38:29;;;;;;;7.43;5.93;;;21.70;1.00;;;;;;5115193;28;20419;-54